Startpagina
METAR-TAF:

METAR-TAF

Vliegvelden :

Army Air Corps Middle Wallop

Middle Wallop, Engeland

breedte: 51-09N, lengte: 001-34W, hoogte: 91 m

Actueel weer

Dit bericht is 1 uur en het 21 minuten geleden gemaakt, om 19:50 UTC
Wind 2 kt uit het westen
Temperatuur 8°C
Vochtigheid 76%
Druk 1023 hPa
Zicht 10 km of meer

METAR: EGVP 231950Z AUTO 28002KT 9999 OVC060/// 08/04 Q1023

Tijdstip: 21:11 (21:11 UTC)


TAF: ontbreekt

Waarnemingen en weersverwachtingen van meer dan 4000 vliegvelden (METAR en TAF).

De beschikbare stations zijn de gele en rode punten op de kaart.

Ga met uw muis naar het station om de naam te zien.

Klik dan om waarnemingen en weersverwachtingen te zien.

kaart wijzigen: klik op de groene knoppen met een zwart kruis om in te zoomen, op de groene knop met een streepje om uit te zoomen of op de groene pijlen voor aangrenzende kaarten.


METAR-TAF: